Flight Track Log - Related Links

Times and Time Zones

All times are in EDT time to prevent confusion due to time zone crossing. See the N31PS flight status page for this flight to view local times or setup timezone preferences in your user account.

Time Position Orientation Groundspeed Altitude Reporting Facility
EDT Latitude Longitude Course Direction KTS MPH feet Rate Location/Type
Sun 07:56:37 AM 39.0333 -76.3333 38° Northeast 132 152 1,500  Level Potomac TRACON
Sun 07:57:37 AM 39.0667 -76.3000 38° Northeast 132 152 1,600 53 Climbing Potomac TRACON
Sun 07:58:31 AM 39.0833 -76.2667 57° Northeast 128 147 1,600 105 Level Potomac TRACON
Sun 07:59:31 AM 39.1167 -76.2500 21° North 130 150 1,800  Climbing Potomac TRACON
Sun 08:00:31 AM 39.1500 -76.2167 38° Northeast 132 152 1,600 -50 Descending Potomac TRACON
Sun 08:01:31 AM 39.1833 -76.2000 21° North 136 157 1,700  Climbing Potomac TRACON
Sun 08:02:31 AM 39.2167 -76.1667 38° Northeast 135 155 1,600 -100 Descending Potomac TRACON
Sun 08:03:31 AM 39.2333 -76.1500 38° Northeast 130 150 1,500 30 Descending Potomac TRACON
Sun 08:05:48 AM 39.3167 -76.0833 32° Northeast 137 158 1,700 30 Climbing Philadelphia TRACON
Sun 08:06:48 AM 39.3333 -76.0667 38° Northeast 133 153 1,600  Descending Philadelphia TRACON
Sun 08:07:48 AM 39.3667 -76.0333 38° Northeast 131 151 1,700 50 Climbing Philadelphia TRACON
Sun 08:08:48 AM 39.4000 -76.0167 21° North 132 152 1,700 -50 Level Philadelphia TRACON
Sun 08:09:48 AM 39.4333 -76.0000 21° North 131 151 1,600 -50 Descending Philadelphia TRACON
Sun 08:10:48 AM 39.4667 -75.9833 21° North 141 162 1,600  Level Philadelphia TRACON
Sun 08:12:00 AM 39.4985 -75.9453 43° Northeast  Level FlightAware Approximate
Sun 08:19:00 AM 39.6837 -75.7229 43° Northeast  Level FlightAware Approximate
Sun 08:20:00 AM 39.7101 -75.6910 43° Northeast  Level FlightAware Approximate
Sun 08:21:00 AM 39.7365 -75.6591 43° Northeast  Level FlightAware Approximate
Sun 08:22:00 AM 39.7629 -75.6272 43° Northeast  Level FlightAware Approximate
Sun 08:23:00 AM 39.7893 -75.5952 43° Northeast  Level FlightAware Approximate
Sun 08:24:00 AM 39.8157 -75.5632 43° Northeast  Level FlightAware Approximate
Sun 08:25:00 AM 39.8420 -75.5312 43° Northeast  Level FlightAware Approximate
Sun 08:26:00 AM 39.8684 -75.4992 43° Northeast  Level FlightAware Approximate
Sun 08:27:00 AM 39.8948 -75.4672 43° Northeast  Level FlightAware Approximate
Sun 08:28:00 AM 39.9211 -75.4351 43° Northeast  Level FlightAware Approximate
Sun 08:29:00 AM 39.9475 -75.4030 43° Northeast  Level FlightAware Approximate
Sun 08:30:00 AM 39.9738 -75.3709 43° Northeast  Level FlightAware Approximate
Sun 08:31:00 AM 40.0001 -75.3387 43° Northeast  Level FlightAware Approximate
Sun 08:32:00 AM 40.0264 -75.3065 43° Northeast  Level FlightAware Approximate
Sun 08:33:00 AM 40.0527 -75.2744 43° Northeast  Level FlightAware Approximate
Sun 08:34:00 AM 40.0790 -75.2421 43° Northeast  Level FlightAware Approximate
Sun 08:35:00 AM 40.1053 -75.2099 43° Northeast  Level FlightAware Approximate
Sun 08:36:00 AM 40.1316 -75.1776 43° Northeast  Level FlightAware Approximate
Sun 08:37:00 AM 40.1579 -75.1453 43° Northeast  Level FlightAware Approximate
Sun 08:38:00 AM 40.1842 -75.1130 43° Northeast  Level FlightAware Approximate
Sun 08:39:00 AM 40.2104 -75.0806 43° Northeast  Level FlightAware Approximate
Sun 08:40:00 AM 40.2366 -75.0483 43° Northeast  Level FlightAware Approximate
Sun 08:41:00 AM 40.2629 -75.0159 43° Northeast  Level FlightAware Approximate
Sun 08:42:00 AM 40.2891 -74.9835 43° Northeast  Level FlightAware Approximate
Sun 08:43:00 AM 40.3153 -74.9510 43° Northeast  Level FlightAware Approximate
Sun 08:44:00 AM 40.3415 -74.9185 43° Northeast  Level FlightAware Approximate
Sun 08:45:00 AM 40.3677 -74.8860 43° Northeast  Level FlightAware Approximate
Sun 08:46:00 AM 40.3944 -74.8542 41° Northeast  Level FlightAware Approximate
Sun 08:47:00 AM 40.4217 -74.8233 41° Northeast  Level FlightAware Approximate
Sun 08:48:00 AM 40.4491 -74.7924 41° Northeast  Level FlightAware Approximate
Sun 08:49:00 AM 40.4764 -74.7615 41° Northeast  Level FlightAware Approximate
Sun 08:50:00 AM 40.5037 -74.7306 41° Northeast  Level FlightAware Approximate
Sun 08:51:00 AM 40.5310 -74.6996 41° Northeast  Level FlightAware Approximate
Sun 08:52:00 AM 40.5583 -74.6686 41° Northeast  Level FlightAware Approximate
Sun 08:53:00 AM 40.5856 -74.6376 41° Northeast  Level FlightAware Approximate
Sun 08:54:00 AM 40.6129 -74.6066 41° Northeast  Level FlightAware Approximate
Sun 08:55:00 AM 40.6401 -74.5755 41° Northeast  Level FlightAware Approximate
Sun 08:56:00 AM 40.6674 -74.5444 41° Northeast  Level FlightAware Approximate
Sun 08:57:00 AM 40.6946 -74.5133 41° Northeast  Level FlightAware Approximate
Sun 08:58:00 AM 40.7219 -74.4822 41° Northeast  Level FlightAware Approximate
Sun 08:59:00 AM 40.7491 -74.4510 41° Northeast  Level FlightAware Approximate
Sun 09:00:00 AM 40.7731 -74.4154 49° Northeast  Level FlightAware Approximate
Sun 09:01:00 AM 40.7833 -74.4000 49° Northeast  Level FlightAware Approximate
Sun 09:02:00 AM 40.7993 -74.4149 49° Northeast  Level Estimated
Sun 09:03:00 AM 40.7993 -74.4149 49° Northeast  Level Estimated
Sun 09:04:00 AM 40.7993 -74.4149 49° Northeast  Level Estimated
Sun 09:05:00 AM 40.7993 -74.4149 49° Northeast  Level Estimated
Sun 09:06:00 AM 40.7993 -74.4149 49° Northeast  Level Estimated
Sun 09:07:00 AM 40.7993 -74.4149 49° Northeast  Level Estimated
Sun 09:08:00 AM 40.7993 -74.4149 49° Northeast  Level Estimated
Sun 09:09:00 AM 40.7993 -74.4149 49° Northeast  Level Estimated
Sun 09:10:00 AM 40.7993 -74.4149 49° Northeast  Level Estimated
Sun 09:11:00 AM 40.7993 -74.4149 49° Northeast  Level Estimated
Sun 09:12:00 AM 40.7993 -74.4149 49° Northeast  Level Estimated
Sun 09:13:00 AM 40.7993 -74.4149 49° Northeast  Level Estimated
Sun 09:14:00 AM 40.7993 -74.4149 49° Northeast  Level Estimated
Sun 09:15:00 AM 40.7993 -74.4149 49° Northeast  Level Estimated
Sun 09:16:00 AM 40.7993 -74.4149 49° Northeast  Level Estimated

Login

Don't have an account? Register now (free) for customized features, flight alerts, and more!